Coastal Nomad — WDC6439 — position and weather

sailwx.info

Track history (hours):
 
Tides and Currents Weather Stations Pressure Air Temp Water Temp Dewpoint Dewpoint Depression Visibility Wind Speed Wind Dir Waves Ship Positions

Coastal Nomad

Owner: Coastal Transportation, Inc., Seattle, WA. More information available from US FCC via Universal Licensing System and Coast Guard Vessel Documentation Center.

Last reported at 2016-Jan-27 19:00 UTC. Time now 2016-Feb-06 00:21 UTC.
Position N 57°48' W 150°30'.
Warning: this ship's position is 9 days out of date.

Length 74 m; draft 4.2 m.

Type: Cargo ship. MMSI: 303683000.

Wind from 090 at 27 knots

Waves 2.5 meters (8 feet)

Barometer 952.0 mb
Air temperature 5.0 ° C
Visibility: greater than 5.4 NM

Date/timePositionNaut miles runAvg speedWind from/ knotsBaromVisibWave heightAir tempDewpointWater temp
2016-Jan-27 19:00N 57°48' W 150°30'27911.2 090 / 27952.0 5.4 2.5 5.0
2016-Jan-26 18:00N 56°36' W 142°12'   230 / 37983.0 5.4 3.0 5.0
2016-Jan-24 09:33N 51°26' W 128°03'1611.6
2016-Jan-24 08:09N 51°11' W 127°51'711.2
2016-Jan-24 07:33N 51°06' W 127°45'1211.7
2016-Jan-24 06:33N 50°58' W 127°31'6 5.8
2016-Jan-24 05:33N 50°54' W 127°24'0 0.2
2016-Jan-24 04:33N 50°55' W 127°23'3 2.8
2016-Jan-24 03:33N 50°53' W 127°20'6 6.2
2016-Jan-24 02:33N 50°50' W 127°12'1 1.4
2016-Jan-24 01:33N 50°49' W 127°09'10 9.4
2016-Jan-24 00:26N 50°43' W 126°56'6110.4
2016-Jan-23 18:33N 50°20' W 125°26'1313.0
2016-Jan-23 17:34N 50°08' W 125°21'10 9.7
2016-Jan-23 16:33N 49°60' W 125°12'9 8.8
2016-Jan-23 15:33N 49°54' W 125°02'1010.4
2016-Jan-23 14:33N 49°47' W 124°50'1211.6
2016-Jan-23 13:34N 49°40' W 124°35'1211.6
2016-Jan-23 12:33N 49°34' W 124°21'1211.9
2016-Jan-23 11:33N 49°27' W 124°05'1212.1
2016-Jan-23 10:33N 49°20' W 123°51'1212.1
2016-Jan-23 09:33N 49°12' W 123°36'1212.4
2016-Jan-23 08:33N 49°05' W 123°21'1312.6
2016-Jan-23 07:33N 48°56' W 123°07'1211.9
2016-Jan-23 06:33N 48°48' W 122°53'1110.9
2016-Jan-23 05:33N 48°40' W 122°42'9 8.5
2016-Jan-23 04:33N 48°32' W 122°45'9 8.5
2016-Jan-23 03:32N 48°23' W 122°44'1111.0
2016-Jan-23 02:33N 48°12' W 122°48'1514.6
2016-Jan-23 01:33N 48°00' W 122°36'1312.8
2016-Jan-23 00:33N 47°49' W 122°27'9 9.2
2016-Jan-22 23:33N 47°40' W 122°24'1 1.1
2016-Jan-22 22:33N 47°39' W 122°23'0 0.0
2016-Jan-22 21:33N 47°39' W 122°23'0 0.0
2016-Jan-22 20:33N 47°39' W 122°23'0 0.0
2016-Jan-22 19:33N 47°39' W 122°23'0 0.0
2016-Jan-22 18:33N 47°39' W 122°23'0 0.0
2016-Jan-22 17:33N 47°39' W 122°23'0 0.0
2016-Jan-22 16:33N 47°39' W 122°23'0 0.0
2016-Jan-22 15:33N 47°39' W 122°23'0 0.0
2016-Jan-22 14:33N 47°39' W 122°23'0 0.0
2016-Jan-22 13:30N 47°39' W 122°23'0 0.0
2016-Jan-22 12:33N 47°39' W 122°23'0 0.0
2016-Jan-22 11:32N 47°39' W 122°23'0 0.0
2016-Jan-22 10:33N 47°39' W 122°23'0 0.0
2016-Jan-22 09:33N 47°39' W 122°23'0 0.0
2016-Jan-22 08:33N 47°39' W 122°23'0 0.0
2016-Jan-22 07:33N 47°39' W 122°23'0 0.0
2016-Jan-22 06:32N 47°39' W 122°23'0 0.0
2016-Jan-22 05:33N 47°39' W 122°23'0 0.0
2016-Jan-22 04:33N 47°39' W 122°23'0 0.0
2016-Jan-22 03:30N 47°39' W 122°23'0 0.0
2016-Jan-22 02:33N 47°39' W 122°23'0 0.0
2016-Jan-22 01:32N 47°39' W 122°23'0 0.0
2016-Jan-22 00:33N 47°39' W 122°23'0 0.0
2016-Jan-21 23:33N 47°39' W 122°23'0 0.0
2016-Jan-21 22:33N 47°39' W 122°23'0 0.0
2016-Jan-21 21:33N 47°39' W 122°23'0 0.0
2016-Jan-21 20:33N 47°39' W 122°23'0 0.0
2016-Jan-21 19:32N 47°39' W 122°23'0 0.0
2016-Jan-21 18:32N 47°39' W 122°23'0 0.0
2016-Jan-21 17:33N 47°39' W 122°23'0 0.0
2016-Jan-21 16:32N 47°39' W 122°23'0 0.0
2016-Jan-21 15:33N 47°39' W 122°23'0 0.0
2016-Jan-21 14:32N 47°39' W 122°23'0 0.0
2016-Jan-21 13:33N 47°39' W 122°23'0 0.0
2016-Jan-21 12:33N 47°39' W 122°23'0 0.0
2016-Jan-21 11:33N 47°39' W 122°23'0 0.0
2016-Jan-21 10:32N 47°39' W 122°23'0 0.0
2016-Jan-21 09:32N 47°39' W 122°23'0 0.0
2016-Jan-21 08:33N 47°39' W 122°23'0 0.0
2016-Jan-21 07:33N 47°39' W 122°23'0 0.0
2016-Jan-21 06:33N 47°39' W 122°23'0 0.0
2016-Jan-21 05:33N 47°39' W 122°23'0 0.0
2016-Jan-21 04:33N 47°39' W 122°23'0 0.0
2016-Jan-21 03:33N 47°39' W 122°23'0 0.0
2016-Jan-21 02:33N 47°39' W 122°23'0 0.0
2016-Jan-21 01:33N 47°39' W 122°23'0 0.0
2016-Jan-21 00:33N 47°39' W 122°23'0 0.0
2016-Jan-20 23:33N 47°39' W 122°23'0 0.0
2016-Jan-20 22:33N 47°39' W 122°23'0 0.0
2016-Jan-20 21:33N 47°39' W 122°23'0 0.0
2016-Jan-20 20:33N 47°39' W 122°23'0 0.0
2016-Jan-20 19:33N 47°39' W 122°23'0 0.0
2016-Jan-20 18:33N 47°39' W 122°23'0 0.0
2016-Jan-20 17:33N 47°39' W 122°23'0 0.0
2016-Jan-20 16:33N 47°39' W 122°23'0 0.0
2016-Jan-20 15:33N 47°39' W 122°23'0 0.0
2016-Jan-20 14:32N 47°39' W 122°23'0 0.0
2016-Jan-20 13:33N 47°39' W 122°23'0 0.0
2016-Jan-20 12:33N 47°39' W 122°23'0 0.0
2016-Jan-20 11:33N 47°39' W 122°23'0 0.0
2016-Jan-20 10:33N 47°39' W 122°23'0 0.0
2016-Jan-20 09:33N 47°39' W 122°23'0 0.0
2016-Jan-20 08:33N 47°39' W 122°23'0 0.0
2016-Jan-20 07:33N 47°39' W 122°23'0 0.0
2016-Jan-20 06:33N 47°39' W 122°23'0 0.0
2016-Jan-20 05:33N 47°39' W 122°23'0 0.0
2016-Jan-20 04:32N 47°39' W 122°23'0 0.0
2016-Jan-20 03:33N 47°39' W 122°23'0 0.0
2016-Jan-20 02:33N 47°39' W 122°23'0 0.0
2016-Jan-20 01:33N 47°39' W 122°23'0 0.0
2016-Jan-20 00:33N 47°39' W 122°23'0 0.0
2016-Jan-19 23:33N 47°39' W 122°23'0 0.0
2016-Jan-19 22:32N 47°39' W 122°23'0 0.0
2016-Jan-19 21:32N 47°39' W 122°23'0 0.0
2016-Jan-19 20:33N 47°39' W 122°23'0 0.0
2016-Jan-19 19:32N 47°39' W 122°23'0 0.0
2016-Jan-19 18:33N 47°39' W 122°23'0 0.0
2016-Jan-19 17:33N 47°39' W 122°23'0 0.0
2016-Jan-19 16:33N 47°39' W 122°23'0 0.0
2016-Jan-19 15:33N 47°39' W 122°23'0 0.0
2016-Jan-19 14:30N 47°39' W 122°23'0 0.0
2016-Jan-19 13:33N 47°39' W 122°23'0 0.0
2016-Jan-19 12:33N 47°39' W 122°23'0 0.0
2016-Jan-19 11:33N 47°39' W 122°23'0 0.0
2016-Jan-19 10:33N 47°39' W 122°23'0 0.0
2016-Jan-19 09:30N 47°39' W 122°23'0 0.0
2016-Jan-19 08:32N 47°39' W 122°23'0 0.0
2016-Jan-19 07:33N 47°39' W 122°23'0 0.0
2016-Jan-19 06:33N 47°39' W 122°23'0 0.0
2016-Jan-19 05:32N 47°39' W 122°23'0 0.0
2016-Jan-19 04:29N 47°39' W 122°23'0 0.0
2016-Jan-19 03:32N 47°39' W 122°23'0 0.0
2016-Jan-19 02:32N 47°39' W 122°23'0 0.0
2016-Jan-19 01:32N 47°39' W 122°23'0 0.0
2016-Jan-19 00:29N 47°39' W 122°23'0 0.0
2016-Jan-18 23:32N 47°39' W 122°23'0 0.0
2016-Jan-18 22:32N 47°39' W 122°23'0 0.0
2016-Jan-18 21:32N 47°39' W 122°23'0 0.0
2016-Jan-18 20:32N 47°39' W 122°23'0 0.0
2016-Jan-18 19:29N 47°39' W 122°23'0 0.0
2016-Jan-18 18:32N 47°39' W 122°23'0 0.0
2016-Jan-18 17:32N 47°39' W 122°23'0 0.0
2016-Jan-18 16:32N 47°39' W 122°23'0 0.0
2016-Jan-18 15:33N 47°39' W 122°23'0 0.0
2016-Jan-18 14:32N 47°39' W 122°23'0 0.0
2016-Jan-18 13:32N 47°39' W 122°23'0 0.0
2016-Jan-18 12:32N 47°39' W 122°23'0 0.0
2016-Jan-18 11:32N 47°39' W 122°23'0 0.0
2016-Jan-18 10:32N 47°39' W 122°23'0 0.0
2016-Jan-18 09:33N 47°39' W 122°23'0 0.0
2016-Jan-18 08:32N 47°39' W 122°23'0 0.0
2016-Jan-18 07:32N 47°39' W 122°23'0 0.0
2016-Jan-18 06:32N 47°39' W 122°23'0 0.0
2016-Jan-18 05:32N 47°39' W 122°23'0 0.0
2016-Jan-18 04:32N 47°39' W 122°23'0 0.0
2016-Jan-18 03:32N 47°39' W 122°23'0 0.0
2016-Jan-18 02:32N 47°39' W 122°23'0 0.0
2016-Jan-18 01:32N 47°39' W 122°23'0 0.0
2016-Jan-18 00:32N 47°39' W 122°23'0 0.0
2016-Jan-17 23:32N 47°39' W 122°23'0 0.0
2016-Jan-17 22:32N 47°39' W 122°23'0 0.0
2016-Jan-17 21:32N 47°39' W 122°23'0 0.0
2016-Jan-17 20:32N 47°39' W 122°23'0 0.0
2016-Jan-17 19:32N 47°39' W 122°23'  
Track history (hours):
 
Tides and Currents Weather Stations Pressure Air Temp Water Temp Dewpoint Dewpoint Depression Visibility Wind Speed Wind Dir Waves Ship Positions

Coastal Nomad

Owner: Coastal Transportation, Inc., Seattle, WA. More information available from US FCC via Universal Licensing System and Coast Guard Vessel Documentation Center.

Last reported at 2016-Jan-27 19:00 UTC. Time now 2016-Feb-06 00:21 UTC.
Position N 57°48' W 150°30'.
Warning: this ship's position is 9 days out of date.

Length 74 m; draft 4.2 m.

Type: Cargo ship. MMSI: 303683000.

Wind from 090 at 27 knots

Waves 2.5 meters (8 feet)

Barometer 952.0 mb
Air temperature 5.0 ° C
Visibility: greater than 5.4 NM

Date/timePositionNaut miles runAvg speedWind from/ knotsBaromVisibWave heightAir tempDewpointWater temp
2016-Jan-27 19:00N 57°48' W 150°30'27911.2 090 / 27952.0 5.4 2.5 5.0
2016-Jan-26 18:00N 56°36' W 142°12'   230 / 37983.0 5.4 3.0 5.0
2016-Jan-24 09:33N 51°26' W 128°03'1611.6
2016-Jan-24 08:09N 51°11' W 127°51'711.2
2016-Jan-24 07:33N 51°06' W 127°45'1211.7
2016-Jan-24 06:33N 50°58' W 127°31'6 5.8
2016-Jan-24 05:33N 50°54' W 127°24'0 0.2
2016-Jan-24 04:33N 50°55' W 127°23'3 2.8
2016-Jan-24 03:33N 50°53' W 127°20'6 6.2
2016-Jan-24 02:33N 50°50' W 127°12'1 1.4
2016-Jan-24 01:33N 50°49' W 127°09'10 9.4
2016-Jan-24 00:26N 50°43' W 126°56'6110.4
2016-Jan-23 18:33N 50°20' W 125°26'1313.0
2016-Jan-23 17:34N 50°08' W 125°21'10 9.7
2016-Jan-23 16:33N 49°60' W 125°12'9 8.8
2016-Jan-23 15:33N 49°54' W 125°02'1010.4
2016-Jan-23 14:33N 49°47' W 124°50'1211.6
2016-Jan-23 13:34N 49°40' W 124°35'1211.6
2016-Jan-23 12:33N 49°34' W 124°21'1211.9
2016-Jan-23 11:33N 49°27' W 124°05'1212.1
2016-Jan-23 10:33N 49°20' W 123°51'1212.1
2016-Jan-23 09:33N 49°12' W 123°36'1212.4
2016-Jan-23 08:33N 49°05' W 123°21'1312.6
2016-Jan-23 07:33N 48°56' W 123°07'1211.9
2016-Jan-23 06:33N 48°48' W 122°53'1110.9
2016-Jan-23 05:33N 48°40' W 122°42'9 8.5
2016-Jan-23 04:33N 48°32' W 122°45'9 8.5
2016-Jan-23 03:32N 48°23' W 122°44'1111.0
2016-Jan-23 02:33N 48°12' W 122°48'1514.6
2016-Jan-23 01:33N 48°00' W 122°36'1312.8
2016-Jan-23 00:33N 47°49' W 122°27'9 9.2
2016-Jan-22 23:33N 47°40' W 122°24'1 1.1
2016-Jan-22 22:33N 47°39' W 122°23'0 0.0
2016-Jan-22 21:33N 47°39' W 122°23'0 0.0
2016-Jan-22 20:33N 47°39' W 122°23'0 0.0
2016-Jan-22 19:33N 47°39' W 122°23'0 0.0
2016-Jan-22 18:33N 47°39' W 122°23'0 0.0
2016-Jan-22 17:33N 47°39' W 122°23'0 0.0
2016-Jan-22 16:33N 47°39' W 122°23'0 0.0
2016-Jan-22 15:33N 47°39' W 122°23'0 0.0
2016-Jan-22 14:33N 47°39' W 122°23'0 0.0
2016-Jan-22 13:30N 47°39' W 122°23'0 0.0
2016-Jan-22 12:33N 47°39' W 122°23'0 0.0
2016-Jan-22 11:32N 47°39' W 122°23'0 0.0
2016-Jan-22 10:33N 47°39' W 122°23'0 0.0
2016-Jan-22 09:33N 47°39' W 122°23'0 0.0
2016-Jan-22 08:33N 47°39' W 122°23'0 0.0
2016-Jan-22 07:33N 47°39' W 122°23'0 0.0
2016-Jan-22 06:32N 47°39' W 122°23'0 0.0
2016-Jan-22 05:33N 47°39' W 122°23'0 0.0
2016-Jan-22 04:33N 47°39' W 122°23'0 0.0
2016-Jan-22 03:30N 47°39' W 122°23'0 0.0
2016-Jan-22 02:33N 47°39' W 122°23'0 0.0
2016-Jan-22 01:32N 47°39' W 122°23'0 0.0
2016-Jan-22 00:33N 47°39' W 122°23'0 0.0
2016-Jan-21 23:33N 47°39' W 122°23'0 0.0
2016-Jan-21 22:33N 47°39' W 122°23'0 0.0
2016-Jan-21 21:33N 47°39' W 122°23'0 0.0
2016-Jan-21 20:33N 47°39' W 122°23'0 0.0
2016-Jan-21 19:32N 47°39' W 122°23'0 0.0
2016-Jan-21 18:32N 47°39' W 122°23'0 0.0
2016-Jan-21 17:33N 47°39' W 122°23'0 0.0
2016-Jan-21 16:32N 47°39' W 122°23'0 0.0
2016-Jan-21 15:33N 47°39' W 122°23'0 0.0
2016-Jan-21 14:32N 47°39' W 122°23'0 0.0
2016-Jan-21 13:33N 47°39' W 122°23'0 0.0
2016-Jan-21 12:33N 47°39' W 122°23'0 0.0
2016-Jan-21 11:33N 47°39' W 122°23'0 0.0
2016-Jan-21 10:32N 47°39' W 122°23'0 0.0
2016-Jan-21 09:32N 47°39' W 122°23'0 0.0
2016-Jan-21 08:33N 47°39' W 122°23'0 0.0
2016-Jan-21 07:33N 47°39' W 122°23'0 0.0
2016-Jan-21 06:33N 47°39' W 122°23'0 0.0
2016-Jan-21 05:33N 47°39' W 122°23'0 0.0
2016-Jan-21 04:33N 47°39' W 122°23'0 0.0
2016-Jan-21 03:33N 47°39' W 122°23'0 0.0
2016-Jan-21 02:33N 47°39' W 122°23'0 0.0
2016-Jan-21 01:33N 47°39' W 122°23'0 0.0
2016-Jan-21 00:33N 47°39' W 122°23'0 0.0
2016-Jan-20 23:33N 47°39' W 122°23'0 0.0
2016-Jan-20 22:33N 47°39' W 122°23'0 0.0
2016-Jan-20 21:33N 47°39' W 122°23'0 0.0
2016-Jan-20 20:33N 47°39' W 122°23'0 0.0
2016-Jan-20 19:33N 47°39' W 122°23'0 0.0
2016-Jan-20 18:33N 47°39' W 122°23'0 0.0
2016-Jan-20 17:33N 47°39' W 122°23'0 0.0
2016-Jan-20 16:33N 47°39' W 122°23'0 0.0
2016-Jan-20 15:33N 47°39' W 122°23'0 0.0
2016-Jan-20 14:32N 47°39' W 122°23'0 0.0
2016-Jan-20 13:33N 47°39' W 122°23'0 0.0
2016-Jan-20 12:33N 47°39' W 122°23'0 0.0
2016-Jan-20 11:33N 47°39' W 122°23'0 0.0
2016-Jan-20 10:33N 47°39' W 122°23'0 0.0
2016-Jan-20 09:33N 47°39' W 122°23'0 0.0
2016-Jan-20 08:33N 47°39' W 122°23'0 0.0
2016-Jan-20 07:33N 47°39' W 122°23'0 0.0
2016-Jan-20 06:33N 47°39' W 122°23'0 0.0
2016-Jan-20 05:33N 47°39' W 122°23'0 0.0
2016-Jan-20 04:32N 47°39' W 122°23'0 0.0
2016-Jan-20 03:33N 47°39' W 122°23'0 0.0
2016-Jan-20 02:33N 47°39' W 122°23'0 0.0
2016-Jan-20 01:33N 47°39' W 122°23'0 0.0
2016-Jan-20 00:33N 47°39' W 122°23'0 0.0
2016-Jan-19 23:33N 47°39' W 122°23'0 0.0
2016-Jan-19 22:32N 47°39' W 122°23'0 0.0
2016-Jan-19 21:32N 47°39' W 122°23'0 0.0
2016-Jan-19 20:33N 47°39' W 122°23'0 0.0
2016-Jan-19 19:32N 47°39' W 122°23'0 0.0
2016-Jan-19 18:33N 47°39' W 122°23'0 0.0
2016-Jan-19 17:33N 47°39' W 122°23'0 0.0
2016-Jan-19 16:33N 47°39' W 122°23'0 0.0
2016-Jan-19 15:33N 47°39' W 122°23'0 0.0
2016-Jan-19 14:30N 47°39' W 122°23'0 0.0
2016-Jan-19 13:33N 47°39' W 122°23'0 0.0
2016-Jan-19 12:33N 47°39' W 122°23'0 0.0
2016-Jan-19 11:33N 47°39' W 122°23'0 0.0
2016-Jan-19 10:33N 47°39' W 122°23'0 0.0
2016-Jan-19 09:30N 47°39' W 122°23'0 0.0
2016-Jan-19 08:32N 47°39' W 122°23'0 0.0
2016-Jan-19 07:33N 47°39' W 122°23'0 0.0
2016-Jan-19 06:33N 47°39' W 122°23'0 0.0
2016-Jan-19 05:32N 47°39' W 122°23'0 0.0
2016-Jan-19 04:29N 47°39' W 122°23'0 0.0
2016-Jan-19 03:32N 47°39' W 122°23'0 0.0
2016-Jan-19 02:32N 47°39' W 122°23'0 0.0
2016-Jan-19 01:32N 47°39' W 122°23'0 0.0
2016-Jan-19 00:29N 47°39' W 122°23'0 0.0
2016-Jan-18 23:32N 47°39' W 122°23'0 0.0
2016-Jan-18 22:32N 47°39' W 122°23'0 0.0
2016-Jan-18 21:32N 47°39' W 122°23'0 0.0
2016-Jan-18 20:32N 47°39' W 122°23'0 0.0
2016-Jan-18 19:29N 47°39' W 122°23'0 0.0
2016-Jan-18 18:32N 47°39' W 122°23'0 0.0
2016-Jan-18 17:32N 47°39' W 122°23'0 0.0
2016-Jan-18 16:32N 47°39' W 122°23'0 0.0
2016-Jan-18 15:33N 47°39' W 122°23'0 0.0
2016-Jan-18 14:32N 47°39' W 122°23'0 0.0
2016-Jan-18 13:32N 47°39' W 122°23'0 0.0
2016-Jan-18 12:32N 47°39' W 122°23'0 0.0
2016-Jan-18 11:32N 47°39' W 122°23'0 0.0
2016-Jan-18 10:32N 47°39' W 122°23'0 0.0
2016-Jan-18 09:33N 47°39' W 122°23'0 0.0
2016-Jan-18 08:32N 47°39' W 122°23'0 0.0
2016-Jan-18 07:32N 47°39' W 122°23'0 0.0
2016-Jan-18 06:32N 47°39' W 122°23'0 0.0
2016-Jan-18 05:32N 47°39' W 122°23'0 0.0
2016-Jan-18 04:32N 47°39' W 122°23'0 0.0
2016-Jan-18 03:32N 47°39' W 122°23'0 0.0
2016-Jan-18 02:32N 47°39' W 122°23'0 0.0
2016-Jan-18 01:32N 47°39' W 122°23'0 0.0
2016-Jan-18 00:32N 47°39' W 122°23'0 0.0
2016-Jan-17 23:32N 47°39' W 122°23'0 0.0
2016-Jan-17 22:32N 47°39' W 122°23'0 0.0
2016-Jan-17 21:32N 47°39' W 122°23'0 0.0
2016-Jan-17 20:32N 47°39' W 122°23'0 0.0
2016-Jan-17 19:32N 47°39' W 122°23'  

Dump ship's entire track history